Willard, New York
Current Conditions -  °F | °C
As of 1:53 AM on Saturday 25 Oct 2014 (Local Time) from KPEO Reporting Station
Few Clouds Few Clouds  
Wind Chill: 44°   Ceiling: Unl
Heat Index: 48°   Visibility: 10mi
Dew Point: 41°   Wind: 8mph
Humidity: 77%   Direction: 210°SSW
Pressure: 29.9"   Gusts: NA
Location:  42.68°N, 76.87°W
Report Text: KPEO 250553Z AUTO 21007KT 10SM FEW070 09/05 A2990 RMK AO2 SLP126 T00890050 10111 20089 58010
Loading
Personal Weather Stations






























Interactive Weather Map
Tropical Storm Tracking
New forecast layout! Learn more

10-Day Weather Forecast

Advertisements
Track Severe Weather on mobile